sensor_id;sensor_type;location;lat;lon;timestamp;temperature;humidity
3406;DHT22;10008;48.682;9.016;2023-07-20T00:00:50;18.20;99.90
3406;DHT22;10008;48.682;9.016;2023-07-20T00:03:19;18.20;99.90
3406;DHT22;10008;48.682;9.016;2023-07-20T00:05:51;18.10;99.90
3406;DHT22;10008;48.682;9.016;2023-07-20T00:08:18;18.10;99.90
3406;DHT22;10008;48.682;9.016;2023-07-20T00:10:44;18.00;99.90
3406;DHT22;10008;48.682;9.016;2023-07-20T00:13:11;17.90;99.90
3406;DHT22;10008;48.682;9.016;2023-07-20T00:15:37;17.90;99.90
3406;DHT22;10008;48.682;9.016;2023-07-20T00:18:04;17.80;99.90
3406;DHT22;10008;48.682;9.016;2023-07-20T00:20:30;17.80;99.90
3406;DHT22;10008;48.682;9.016;2023-07-20T00:22:56;17.80;99.90
3406;DHT22;10008;48.682;9.016;2023-07-20T00:25:26;17.80;99.90
3406;DHT22;10008;48.682;9.016;2023-07-20T00:27:52;17.80;99.90
3406;DHT22;10008;48.682;9.016;2023-07-20T00:30:19;17.80;99.90
3406;DHT22;10008;48.682;9.016;2023-07-20T00:32:45;17.80;99.50
3406;DHT22;10008;48.682;9.016;2023-07-20T00:35:11;17.80;99.90
3406;DHT22;10008;48.682;9.016;2023-07-20T00:37:38;17.80;99.50
3406;DHT22;10008;48.682;9.016;2023-07-20T00:40:05;17.80;99.90
3406;DHT22;10008;48.682;9.016;2023-07-20T00:42:33;17.80;99.90
3406;DHT22;10008;48.682;9.016;2023-07-20T00:44:59;17.80;99.90
3406;DHT22;10008;48.682;9.016;2023-07-20T00:47:27;17.80;99.90
3406;DHT22;10008;48.682;9.016;2023-07-20T00:49:53;17.70;99.90
3406;DHT22;10008;48.682;9.016;2023-07-20T00:52:21;17.70;99.90
3406;DHT22;10008;48.682;9.016;2023-07-20T00:54:49;17.60;99.90
3406;DHT22;10008;48.682;9.016;2023-07-20T00:57:15;17.60;99.90
3406;DHT22;10008;48.682;9.016;2023-07-20T00:59:43;17.60;99.90
3406;DHT22;10008;48.682;9.016;2023-07-20T01:02:09;17.60;99.90
3406;DHT22;10008;48.682;9.016;2023-07-20T01:04:35;17.50;99.90
3406;DHT22;10008;48.682;9.016;2023-07-20T01:07:25;17.40;99.90
3406;DHT22;10008;48.682;9.016;2023-07-20T01:10:02;17.40;99.90
3406;DHT22;10008;48.682;9.016;2023-07-20T01:12:43;17.40;99.90
3406;DHT22;10008;48.682;9.016;2023-07-20T01:15:09;17.40;99.90
3406;DHT22;10008;48.682;9.016;2023-07-20T01:17:36;17.40;99.90
3406;DHT22;10008;48.682;9.016;2023-07-20T01:20:02;17.30;99.90
3406;DHT22;10008;48.682;9.016;2023-07-20T01:30:55;17.10;99.90
3406;DHT22;10008;48.682;9.016;2023-07-20T01:33:24;17.10;99.90
3406;DHT22;10008;48.682;9.016;2023-07-20T01:35:58;17.10;99.90
3406;DHT22;10008;48.682;9.016;2023-07-20T01:38:25;17.00;99.90
3406;DHT22;10008;48.682;9.016;2023-07-20T01:40:52;16.90;99.90
3406;DHT22;10008;48.682;9.016;2023-07-20T01:43:18;16.90;99.90
3406;DHT22;10008;48.682;9.016;2023-07-20T01:45:44;16.90;99.90
3406;DHT22;10008;48.682;9.016;2023-07-20T01:48:11;16.90;99.90
3406;DHT22;10008;48.682;9.016;2023-07-20T01:50:37;16.90;99.90
3406;DHT22;10008;48.682;9.016;2023-07-20T01:53:02;16.80;99.90
3406;DHT22;10008;48.682;9.016;2023-07-20T01:55:28;16.80;99.90
3406;DHT22;10008;48.682;9.016;2023-07-20T01:57:55;16.80;99.90
3406;DHT22;10008;48.682;9.016;2023-07-20T02:00:21;18.20;99.90
3406;DHT22;10008;48.682;9.016;2023-07-20T02:02:50;16.70;99.90
3406;DHT22;10008;48.682;9.016;2023-07-20T02:05:16;16.70;99.90
3406;DHT22;10008;48.682;9.016;2023-07-20T02:07:42;16.60;99.90
3406;DHT22;10008;48.682;9.016;2023-07-20T02:10:09;16.60;99.90
3406;DHT22;10008;48.682;9.016;2023-07-20T02:12:35;16.50;99.90
3406;DHT22;10008;48.682;9.016;2023-07-20T02:15:02;16.40;99.90
3406;DHT22;10008;48.682;9.016;2023-07-20T02:17:28;16.40;99.90
3406;DHT22;10008;48.682;9.016;2023-07-20T02:19:56;16.30;99.90
3406;DHT22;10008;48.682;9.016;2023-07-20T02:22:23;16.30;99.90
3406;DHT22;10008;48.682;9.016;2023-07-20T02:24:49;16.20;99.90
3406;DHT22;10008;48.682;9.016;2023-07-20T02:27:16;16.20;99.90
3406;DHT22;10008;48.682;9.016;2023-07-20T02:29:42;16.20;99.90
3406;DHT22;10008;48.682;9.016;2023-07-20T02:32:10;16.10;99.90
3406;DHT22;10008;48.682;9.016;2023-07-20T02:34:36;16.10;99.90
3406;DHT22;10008;48.682;9.016;2023-07-20T02:37:02;16.10;99.90
3406;DHT22;10008;48.682;9.016;2023-07-20T02:39:29;16.00;99.90
3406;DHT22;10008;48.682;9.016;2023-07-20T02:41:54;16.00;99.90
3406;DHT22;10008;48.682;9.016;2023-07-20T02:44:20;16.00;99.90
3406;DHT22;10008;48.682;9.016;2023-07-20T02:46:46;16.00;99.90
3406;DHT22;10008;48.682;9.016;2023-07-20T02:49:12;15.90;99.90
3406;DHT22;10008;48.682;9.016;2023-07-20T02:51:38;15.90;99.90
3406;DHT22;10008;48.682;9.016;2023-07-20T02:54:03;15.90;99.90
3406;DHT22;10008;48.682;9.016;2023-07-20T02:56:29;15.90;99.90
3406;DHT22;10008;48.682;9.016;2023-07-20T02:58:55;15.90;99.90
3406;DHT22;10008;48.682;9.016;2023-07-20T03:01:21;15.90;99.90
3406;DHT22;10008;48.682;9.016;2023-07-20T03:03:47;15.90;99.90
3406;DHT22;10008;48.682;9.016;2023-07-20T03:06:16;15.90;99.90
3406;DHT22;10008;48.682;9.016;2023-07-20T03:08:42;16.00;99.90
3406;DHT22;10008;48.682;9.016;2023-07-20T03:11:14;16.00;99.90
3406;DHT22;10008;48.682;9.016;2023-07-20T03:13:41;15.90;99.90
3406;DHT22;10008;48.682;9.016;2023-07-20T03:16:08;15.90;99.90
3406;DHT22;10008;48.682;9.016;2023-07-20T03:18:39;15.90;99.90
3406;DHT22;10008;48.682;9.016;2023-07-20T03:21:08;15.90;99.90
3406;DHT22;10008;48.682;9.016;2023-07-20T03:23:34;15.80;99.90
3406;DHT22;10008;48.682;9.016;2023-07-20T03:26:01;15.90;99.90
3406;DHT22;10008;48.682;9.016;2023-07-20T03:28:26;15.90;99.90
3406;DHT22;10008;48.682;9.016;2023-07-20T03:30:58;15.90;99.90
3406;DHT22;10008;48.682;9.016;2023-07-20T03:33:26;15.80;99.90
3406;DHT22;10008;48.682;9.016;2023-07-20T03:35:53;15.80;99.90
3406;DHT22;10008;48.682;9.016;2023-07-20T03:38:20;15.70;99.90
3406;DHT22;10008;48.682;9.016;2023-07-20T03:40:53;15.70;99.90
3406;DHT22;10008;48.682;9.016;2023-07-20T03:43:19;15.70;99.90
3406;DHT22;10008;48.682;9.016;2023-07-20T03:45:45;15.60;99.90
3406;DHT22;10008;48.682;9.016;2023-07-20T03:48:15;15.60;99.90
3406;DHT22;10008;48.682;9.016;2023-07-20T03:50:41;15.60;99.90
3406;DHT22;10008;48.682;9.016;2023-07-20T03:53:07;15.60;99.90
3406;DHT22;10008;48.682;9.016;2023-07-20T03:55:33;15.50;99.90
3406;DHT22;10008;48.682;9.016;2023-07-20T03:57:59;15.40;99.90
3406;DHT22;10008;48.682;9.016;2023-07-20T04:00:24;15.40;99.90
3406;DHT22;10008;48.682;9.016;2023-07-20T04:02:50;15.30;99.90
3406;DHT22;10008;48.682;9.016;2023-07-20T04:05:16;15.20;99.90
3406;DHT22;10008;48.682;9.016;2023-07-20T04:07:42;15.20;99.90
3406;DHT22;10008;48.682;9.016;2023-07-20T04:10:08;15.20;99.90
3406;DHT22;10008;48.682;9.016;2023-07-20T04:12:35;15.20;99.90
3406;DHT22;10008;48.682;9.016;2023-07-20T04:15:01;15.30;99.90
3406;DHT22;10008;48.682;9.016;2023-07-20T04:17:27;15.30;99.90
3406;DHT22;10008;48.682;9.016;2023-07-20T04:19:53;15.40;99.90
3406;DHT22;10008;48.682;9.016;2023-07-20T04:22:18;15.40;99.90
3406;DHT22;10008;48.682;9.016;2023-07-20T04:24:45;15.50;99.90
3406;DHT22;10008;48.682;9.016;2023-07-20T04:27:10;15.60;99.90
3406;DHT22;10008;48.682;9.016;2023-07-20T04:29:36;15.70;99.90
3406;DHT22;10008;48.682;9.016;2023-07-20T04:32:02;15.80;99.90
3406;DHT22;10008;48.682;9.016;2023-07-20T04:34:28;17.80;99.90
3406;DHT22;10008;48.682;9.016;2023-07-20T04:36:54;16.10;99.90
3406;DHT22;10008;48.682;9.016;2023-07-20T04:39:21;16.20;99.90
3406;DHT22;10008;48.682;9.016;2023-07-20T04:41:48;16.30;99.90
3406;DHT22;10008;48.682;9.016;2023-07-20T04:44:15;16.40;99.90
3406;DHT22;10008;48.682;9.016;2023-07-20T04:46:41;16.40;99.90
3406;DHT22;10008;48.682;9.016;2023-07-20T04:49:07;16.60;99.90
3406;DHT22;10008;48.682;9.016;2023-07-20T04:51:37;16.80;99.90
3406;DHT22;10008;48.682;9.016;2023-07-20T04:54:03;16.90;99.90
3406;DHT22;10008;48.682;9.016;2023-07-20T04:56:33;17.00;99.90
3406;DHT22;10008;48.682;9.016;2023-07-20T04:59:00;17.00;99.90
3406;DHT22;10008;48.682;9.016;2023-07-20T05:01:26;17.10;99.90
3406;DHT22;10008;48.682;9.016;2023-07-20T05:03:54;17.10;99.90
3406;DHT22;10008;48.682;9.016;2023-07-20T05:06:20;17.10;99.90
3406;DHT22;10008;48.682;9.016;2023-07-20T05:08:46;17.10;99.90
3406;DHT22;10008;48.682;9.016;2023-07-20T05:11:11;17.20;99.90
3406;DHT22;10008;48.682;9.016;2023-07-20T05:13:38;17.30;99.90
3406;DHT22;10008;48.682;9.016;2023-07-20T05:16:03;17.30;99.90
3406;DHT22;10008;48.682;9.016;2023-07-20T05:18:31;17.40;99.90
3406;DHT22;10008;48.682;9.016;2023-07-20T05:20:57;17.40;99.90
3406;DHT22;10008;48.682;9.016;2023-07-20T05:23:22;17.40;99.90
3406;DHT22;10008;48.682;9.016;2023-07-20T05:25:56;17.50;99.90
3406;DHT22;10008;48.682;9.016;2023-07-20T05:28:23;17.60;99.90
3406;DHT22;10008;48.682;9.016;2023-07-20T05:30:49;17.60;99.90
3406;DHT22;10008;48.682;9.016;2023-07-20T05:33:17;17.70;99.90
3406;DHT22;10008;48.682;9.016;2023-07-20T05:35:43;17.70;99.90
3406;DHT22;10008;48.682;9.016;2023-07-20T05:38:09;17.70;99.90
3406;DHT22;10008;48.682;9.016;2023-07-20T05:40:40;17.80;99.90
3406;DHT22;10008;48.682;9.016;2023-07-20T05:43:06;17.90;99.90
3406;DHT22;10008;48.682;9.016;2023-07-20T05:45:32;18.00;99.90
3406;DHT22;10008;48.682;9.016;2023-07-20T05:47:58;18.00;99.90
3406;DHT22;10008;48.682;9.016;2023-07-20T05:50:23;18.20;99.90
3406;DHT22;10008;48.682;9.016;2023-07-20T05:52:53;18.30;99.90
3406;DHT22;10008;48.682;9.016;2023-07-20T05:55:19;18.30;99.90
3406;DHT22;10008;48.682;9.016;2023-07-20T05:57:45;18.40;99.90
3406;DHT22;10008;48.682;9.016;2023-07-20T06:00:12;18.50;99.90
3406;DHT22;10008;48.682;9.016;2023-07-20T06:02:40;18.50;99.90
3406;DHT22;10008;48.682;9.016;2023-07-20T06:05:07;18.40;99.90
3406;DHT22;10008;48.682;9.016;2023-07-20T06:07:38;18.40;99.90
3406;DHT22;10008;48.682;9.016;2023-07-20T06:10:05;18.50;99.90
3406;DHT22;10008;48.682;9.016;2023-07-20T06:12:34;18.60;99.90
3406;DHT22;10008;48.682;9.016;2023-07-20T06:15:03;18.70;99.90
3406;DHT22;10008;48.682;9.016;2023-07-20T06:17:29;18.60;99.90
3406;DHT22;10008;48.682;9.016;2023-07-20T06:19:55;18.60;99.90
3406;DHT22;10008;48.682;9.016;2023-07-20T06:22:21;18.50;99.90
3406;DHT22;10008;48.682;9.016;2023-07-20T06:24:46;18.60;99.90
3406;DHT22;10008;48.682;9.016;2023-07-20T06:27:12;18.70;99.90
3406;DHT22;10008;48.682;9.016;2023-07-20T06:29:38;18.70;99.90
3406;DHT22;10008;48.682;9.016;2023-07-20T06:32:05;18.70;99.90
3406;DHT22;10008;48.682;9.016;2023-07-20T06:34:31;18.90;99.90
3406;DHT22;10008;48.682;9.016;2023-07-20T06:36:56;18.90;99.90
3406;DHT22;10008;48.682;9.016;2023-07-20T06:39:22;19.10;99.90
3406;DHT22;10008;48.682;9.016;2023-07-20T06:41:48;19.20;99.90
3406;DHT22;10008;48.682;9.016;2023-07-20T06:44:14;19.40;99.90
3406;DHT22;10008;48.682;9.016;2023-07-20T06:46:39;19.60;99.90
3406;DHT22;10008;48.682;9.016;2023-07-20T06:49:08;20.00;99.90
3406;DHT22;10008;48.682;9.016;2023-07-20T06:51:34;19.90;99.90
3406;DHT22;10008;48.682;9.016;2023-07-20T06:54:00;20.20;99.90
3406;DHT22;10008;48.682;9.016;2023-07-20T06:56:26;20.60;99.90
3406;DHT22;10008;48.682;9.016;2023-07-20T06:58:52;21.00;99.90
3406;DHT22;10008;48.682;9.016;2023-07-20T07:01:17;21.00;99.50
3406;DHT22;10008;48.682;9.016;2023-07-20T07:03:44;19.00;98.10
3406;DHT22;10008;48.682;9.016;2023-07-20T07:06:09;21.60;99.00
3406;DHT22;10008;48.682;9.016;2023-07-20T07:08:36;22.30;97.70
3406;DHT22;10008;48.682;9.016;2023-07-20T07:11:01;22.70;95.90
3406;DHT22;10008;48.682;9.016;2023-07-20T07:13:27;22.40;96.30
3406;DHT22;10008;48.682;9.016;2023-07-20T07:15:53;22.80;96.00
3406;DHT22;10008;48.682;9.016;2023-07-20T07:18:19;23.10;95.80
3406;DHT22;10008;48.682;9.016;2023-07-20T07:20:52;23.50;94.60
3406;DHT22;10008;48.682;9.016;2023-07-20T07:23:18;24.80;94.00
3406;DHT22;10008;48.682;9.016;2023-07-20T07:25:44;23.90;91.80
3406;DHT22;10008;48.682;9.016;2023-07-20T07:28:10;24.10;92.00
3406;DHT22;10008;48.682;9.016;2023-07-20T07:30:36;25.50;92.60
3406;DHT22;10008;48.682;9.016;2023-07-20T07:33:01;26.30;91.10
3406;DHT22;10008;48.682;9.016;2023-07-20T07:35:27;26.20;88.20
3406;DHT22;10008;48.682;9.016;2023-07-20T07:37:53;26.10;86.10
3406;DHT22;10008;48.682;9.016;2023-07-20T07:40:18;26.40;87.00
3406;DHT22;10008;48.682;9.016;2023-07-20T07:42:44;26.10;86.60
3406;DHT22;10008;48.682;9.016;2023-07-20T07:45:10;26.90;85.20
3406;DHT22;10008;48.682;9.016;2023-07-20T07:47:36;25.60;84.90
3406;DHT22;10008;48.682;9.016;2023-07-20T07:50:02;25.00;86.30
3406;DHT22;10008;48.682;9.016;2023-07-20T07:52:28;24.90;86.50
3406;DHT22;10008;48.682;9.016;2023-07-20T07:54:54;25.00;91.30
3406;DHT22;10008;48.682;9.016;2023-07-20T07:57:19;25.20;89.50
3406;DHT22;10008;48.682;9.016;2023-07-20T07:59:45;23.90;90.40
3406;DHT22;10008;48.682;9.016;2023-07-20T08:02:11;24.30;90.40
3406;DHT22;10008;48.682;9.016;2023-07-20T08:04:37;24.40;90.30
3406;DHT22;10008;48.682;9.016;2023-07-20T08:07:03;25.30;90.10
3406;DHT22;10008;48.682;9.016;2023-07-20T08:09:29;25.60;86.50
3406;DHT22;10008;48.682;9.016;2023-07-20T08:11:55;25.60;86.70
3406;DHT22;10008;48.682;9.016;2023-07-20T08:14:21;26.60;83.40
3406;DHT22;10008;48.682;9.016;2023-07-20T08:16:46;26.20;80.90
3406;DHT22;10008;48.682;9.016;2023-07-20T08:19:13;25.20;84.00
3406;DHT22;10008;48.682;9.016;2023-07-20T08:21:38;25.30;87.10
3406;DHT22;10008;48.682;9.016;2023-07-20T08:24:04;25.20;85.50
3406;DHT22;10008;48.682;9.016;2023-07-20T08:26:30;26.20;85.40
3406;DHT22;10008;48.682;9.016;2023-07-20T08:28:56;27.40;82.10
3406;DHT22;10008;48.682;9.016;2023-07-20T08:31:21;27.30;81.50
3406;DHT22;10008;48.682;9.016;2023-07-20T08:33:47;26.10;82.10
3406;DHT22;10008;48.682;9.016;2023-07-20T08:36:14;24.10;83.00
3406;DHT22;10008;48.682;9.016;2023-07-20T08:38:39;24.10;85.30
3406;DHT22;10008;48.682;9.016;2023-07-20T08:41:05;24.90;85.40
3406;DHT22;10008;48.682;9.016;2023-07-20T08:43:31;26.00;84.90
3406;DHT22;10008;48.682;9.016;2023-07-20T08:45:58;26.10;83.30
3406;DHT22;10008;48.682;9.016;2023-07-20T08:48:24;25.60;82.80
3406;DHT22;10008;48.682;9.016;2023-07-20T08:50:52;25.50;82.50
3406;DHT22;10008;48.682;9.016;2023-07-20T08:53:22;24.70;81.70
3406;DHT22;10008;48.682;9.016;2023-07-20T08:55:51;23.90;84.10
3406;DHT22;10008;48.682;9.016;2023-07-20T08:58:18;23.20;87.60
3406;DHT22;10008;48.682;9.016;2023-07-20T09:00:44;23.50;86.40
3406;DHT22;10008;48.682;9.016;2023-07-20T09:03:11;23.60;85.70
3406;DHT22;10008;48.682;9.016;2023-07-20T09:05:37;23.40;83.50
3406;DHT22;10008;48.682;9.016;2023-07-20T09:08:04;23.00;86.10
3406;DHT22;10008;48.682;9.016;2023-07-20T09:10:31;22.70;89.30
3406;DHT22;10008;48.682;9.016;2023-07-20T09:12:56;22.60;89.10
3406;DHT22;10008;48.682;9.016;2023-07-20T09:15:22;23.30;88.00
3406;DHT22;10008;48.682;9.016;2023-07-20T09:17:49;23.50;84.60
3406;DHT22;10008;48.682;9.016;2023-07-20T09:20:17;24.20;87.80
3406;DHT22;10008;48.682;9.016;2023-07-20T09:22:43;24.50;84.00
3406;DHT22;10008;48.682;9.016;2023-07-20T09:25:16;24.20;83.30
3406;DHT22;10008;48.682;9.016;2023-07-20T09:27:47;23.70;83.40
3406;DHT22;10008;48.682;9.016;2023-07-20T09:30:14;23.10;85.80
3406;DHT22;10008;48.682;9.016;2023-07-20T09:32:41;22.70;89.30
3406;DHT22;10008;48.682;9.016;2023-07-20T09:35:22;22.50;89.50
3406;DHT22;10008;48.682;9.016;2023-07-20T09:38:01;22.40;84.70
3406;DHT22;10008;48.682;9.016;2023-07-20T09:40:27;23.30;83.20
3406;DHT22;10008;48.682;9.016;2023-07-20T09:42:54;23.80;82.10
3406;DHT22;10008;48.682;9.016;2023-07-20T09:45:35;23.90;83.50
3406;DHT22;10008;48.682;9.016;2023-07-20T09:48:06;24.90;82.30
3406;DHT22;10008;48.682;9.016;2023-07-20T09:50:43;26.10;78.60
3406;DHT22;10008;48.682;9.016;2023-07-20T09:53:12;27.20;73.50
3406;DHT22;10008;48.682;9.016;2023-07-20T09:55:41;27.90;69.60
3406;DHT22;10008;48.682;9.016;2023-07-20T09:58:10;29.10;69.30
3406;DHT22;10008;48.682;9.016;2023-07-20T10:00:37;30.30;62.10
3406;DHT22;10008;48.682;9.016;2023-07-20T10:03:05;30.80;62.70
3406;DHT22;10008;48.682;9.016;2023-07-20T10:05:35;30.60;59.60
3406;DHT22;10008;48.682;9.016;2023-07-20T10:08:03;29.50;61.10
3406;DHT22;10008;48.682;9.016;2023-07-20T10:10:33;27.70;62.60
3406;DHT22;10008;48.682;9.016;2023-07-20T10:13:00;26.50;67.40
3406;DHT22;10008;48.682;9.016;2023-07-20T10:15:32;25.90;68.60
3406;DHT22;10008;48.682;9.016;2023-07-20T10:20:33;27.90;65.50
3406;DHT22;10008;48.682;9.016;2023-07-20T10:23:01;28.70;64.60
3406;DHT22;10008;48.682;9.016;2023-07-20T10:25:28;29.30;59.90
3406;DHT22;10008;48.682;9.016;2023-07-20T10:27:54;29.60;58.90
3406;DHT22;10008;48.682;9.016;2023-07-20T10:30:20;30.00;57.10
3406;DHT22;10008;48.682;9.016;2023-07-20T10:32:47;29.70;57.50
3406;DHT22;10008;48.682;9.016;2023-07-20T10:35:15;30.10;59.90
3406;DHT22;10008;48.682;9.016;2023-07-20T10:38:03;28.60;58.20
3406;DHT22;10008;48.682;9.016;2023-07-20T10:40:32;28.10;58.10
3406;DHT22;10008;48.682;9.016;2023-07-20T10:43:00;28.90;56.50
3406;DHT22;10008;48.682;9.016;2023-07-20T10:48:15;30.10;55.60
3406;DHT22;10008;48.682;9.016;2023-07-20T10:50:42;30.50;57.90
3406;DHT22;10008;48.682;9.016;2023-07-20T10:53:12;29.30;55.40
3406;DHT22;10008;48.682;9.016;2023-07-20T10:55:41;28.70;59.50
3406;DHT22;10008;48.682;9.016;2023-07-20T10:58:12;28.60;62.10
3406;DHT22;10008;48.682;9.016;2023-07-20T11:01:01;29.30;59.00
3406;DHT22;10008;48.682;9.016;2023-07-20T11:03:31;30.30;58.30
3406;DHT22;10008;48.682;9.016;2023-07-20T11:05:58;29.60;55.60
3406;DHT22;10008;48.682;9.016;2023-07-20T11:08:41;27.80;59.10
3406;DHT22;10008;48.682;9.016;2023-07-20T11:11:30;26.80;61.60
3406;DHT22;10008;48.682;9.016;2023-07-20T11:13:57;27.00;61.50
3406;DHT22;10008;48.682;9.016;2023-07-20T11:19:01;28.90;57.80
3406;DHT22;10008;48.682;9.016;2023-07-20T11:21:26;29.80;58.80
3406;DHT22;10008;48.682;9.016;2023-07-20T11:23:53;29.70;53.70
3406;DHT22;10008;48.682;9.016;2023-07-20T11:26:19;28.80;56.20
3406;DHT22;10008;48.682;9.016;2023-07-20T11:28:51;27.70;56.20
3406;DHT22;10008;48.682;9.016;2023-07-20T11:31:18;27.30;59.90
3406;DHT22;10008;48.682;9.016;2023-07-20T11:33:44;27.10;58.90
3406;DHT22;10008;48.682;9.016;2023-07-20T11:36:10;27.00;57.20
3406;DHT22;10008;48.682;9.016;2023-07-20T11:38:36;27.10;61.50
3406;DHT22;10008;48.682;9.016;2023-07-20T11:41:04;27.40;59.90
3406;DHT22;10008;48.682;9.016;2023-07-20T11:43:30;27.70;56.20
3406;DHT22;10008;48.682;9.016;2023-07-20T11:45:56;28.40;56.20
3406;DHT22;10008;48.682;9.016;2023-07-20T11:48:23;29.00;54.40
3406;DHT22;10008;48.682;9.016;2023-07-20T11:50:48;29.90;53.40
3406;DHT22;10008;48.682;9.016;2023-07-20T11:53:15;30.50;54.50
3406;DHT22;10008;48.682;9.016;2023-07-20T11:55:41;29.40;52.40
3406;DHT22;10008;48.682;9.016;2023-07-20T11:58:09;28.90;56.40
3406;DHT22;10008;48.682;9.016;2023-07-20T12:00:37;29.30;53.10
3406;DHT22;10008;48.682;9.016;2023-07-20T12:03:06;29.90;52.30
3406;DHT22;10008;48.682;9.016;2023-07-20T12:05:33;30.70;53.40
3406;DHT22;10008;48.682;9.016;2023-07-20T12:07:58;31.10;52.50
3406;DHT22;10008;48.682;9.016;2023-07-20T12:10:28;30.60;50.40
3406;DHT22;10008;48.682;9.016;2023-07-20T12:12:54;30.80;52.40
3406;DHT22;10008;48.682;9.016;2023-07-20T12:15:26;30.70;51.90
3406;DHT22;10008;48.682;9.016;2023-07-20T12:17:56;29.90;52.10
3406;DHT22;10008;48.682;9.016;2023-07-20T12:20:29;29.00;54.90
3406;DHT22;10008;48.682;9.016;2023-07-20T12:23:01;28.60;56.90
3406;DHT22;10008;48.682;9.016;2023-07-20T12:25:40;27.60;56.10
3406;DHT22;10008;48.682;9.016;2023-07-20T12:28:10;27.50;56.40
3406;DHT22;10008;48.682;9.016;2023-07-20T12:30:40;28.30;56.70
3406;DHT22;10008;48.682;9.016;2023-07-20T12:33:07;29.10;54.30
3406;DHT22;10008;48.682;9.016;2023-07-20T12:35:33;29.70;52.00
3406;DHT22;10008;48.682;9.016;2023-07-20T12:37:59;29.80;52.80
3406;DHT22;10008;48.682;9.016;2023-07-20T12:40:25;30.10;56.00
3406;DHT22;10008;48.682;9.016;2023-07-20T12:42:51;30.30;53.90
3406;DHT22;10008;48.682;9.016;2023-07-20T12:45:17;29.60;55.60
3406;DHT22;10008;48.682;9.016;2023-07-20T12:47:43;28.00;56.50
3406;DHT22;10008;48.682;9.016;2023-07-20T12:50:10;27.80;58.40
3406;DHT22;10008;48.682;9.016;2023-07-20T12:52:37;27.90;52.90
3406;DHT22;10008;48.682;9.016;2023-07-20T12:55:04;28.50;54.90
3406;DHT22;10008;48.682;9.016;2023-07-20T12:57:30;28.40;56.50
3406;DHT22;10008;48.682;9.016;2023-07-20T12:59:56;28.80;58.20
3406;DHT22;10008;48.682;9.016;2023-07-20T13:02:21;29.10;53.10
3406;DHT22;10008;48.682;9.016;2023-07-20T13:04:47;29.40;52.80
3406;DHT22;10008;48.682;9.016;2023-07-20T13:07:13;29.30;52.20
3406;DHT22;10008;48.682;9.016;2023-07-20T13:09:38;29.40;54.80
3406;DHT22;10008;48.682;9.016;2023-07-20T13:12:04;29.50;52.60
3406;DHT22;10008;48.682;9.016;2023-07-20T13:14:30;29.60;55.50
3406;DHT22;10008;48.682;9.016;2023-07-20T13:16:56;29.30;54.40
3406;DHT22;10008;48.682;9.016;2023-07-20T13:19:22;28.70;55.80
3406;DHT22;10008;48.682;9.016;2023-07-20T13:21:48;28.20;57.10
3406;DHT22;10008;48.682;9.016;2023-07-20T13:24:13;28.00;55.10
3406;DHT22;10008;48.682;9.016;2023-07-20T13:26:39;28.00;58.30
3406;DHT22;10008;48.682;9.016;2023-07-20T13:29:05;28.30;58.00
3406;DHT22;10008;48.682;9.016;2023-07-20T13:31:31;28.30;57.80
3406;DHT22;10008;48.682;9.016;2023-07-20T13:33:57;28.40;57.50
3406;DHT22;10008;48.682;9.016;2023-07-20T13:36:24;28.10;58.00
3406;DHT22;10008;48.682;9.016;2023-07-20T13:38:49;28.00;52.60
3406;DHT22;10008;48.682;9.016;2023-07-20T13:41:15;28.20;55.80
3406;DHT22;10008;48.682;9.016;2023-07-20T13:43:44;28.40;57.60
3406;DHT22;10008;48.682;9.016;2023-07-20T13:46:10;28.60;57.00
3406;DHT22;10008;48.682;9.016;2023-07-20T13:48:36;28.40;55.90
3406;DHT22;10008;48.682;9.016;2023-07-20T13:51:02;28.20;55.40
3406;DHT22;10008;48.682;9.016;2023-07-20T13:53:28;28.30;56.80
3406;DHT22;10008;48.682;9.016;2023-07-20T13:55:54;28.20;51.20
3406;DHT22;10008;48.682;9.016;2023-07-20T13:58:20;28.30;55.30
3406;DHT22;10008;48.682;9.016;2023-07-20T14:00:45;28.10;56.10
3406;DHT22;10008;48.682;9.016;2023-07-20T14:03:11;27.50;58.40
3406;DHT22;10008;48.682;9.016;2023-07-20T14:05:37;26.70;59.30
3406;DHT22;10008;48.682;9.016;2023-07-20T14:08:02;26.30;61.80
3406;DHT22;10008;48.682;9.016;2023-07-20T14:10:28;26.30;61.60
3406;DHT22;10008;48.682;9.016;2023-07-20T14:12:54;26.40;58.70
3406;DHT22;10008;48.682;9.016;2023-07-20T14:15:19;26.60;54.70
3406;DHT22;10008;48.682;9.016;2023-07-20T14:17:45;26.80;55.40
3406;DHT22;10008;48.682;9.016;2023-07-20T14:20:11;27.10;57.20
3406;DHT22;10008;48.682;9.016;2023-07-20T14:22:37;27.30;56.60
3406;DHT22;10008;48.682;9.016;2023-07-20T14:25:03;27.30;59.00
3406;DHT22;10008;48.682;9.016;2023-07-20T14:27:29;27.30;60.80
3406;DHT22;10008;48.682;9.016;2023-07-20T14:29:55;27.10;57.90
3406;DHT22;10008;48.682;9.016;2023-07-20T14:32:21;26.90;54.60
3406;DHT22;10008;48.682;9.016;2023-07-20T14:34:47;27.00;55.40
3406;DHT22;10008;48.682;9.016;2023-07-20T14:37:12;27.20;54.50
3406;DHT22;10008;48.682;9.016;2023-07-20T14:39:38;27.30;55.60
3406;DHT22;10008;48.682;9.016;2023-07-20T14:42:04;27.50;55.10
3406;DHT22;10008;48.682;9.016;2023-07-20T14:44:30;27.60;53.70
3406;DHT22;10008;48.682;9.016;2023-07-20T14:46:56;27.70;54.50
3406;DHT22;10008;48.682;9.016;2023-07-20T14:49:22;27.70;54.00
3406;DHT22;10008;48.682;9.016;2023-07-20T14:51:48;27.60;57.10
3406;DHT22;10008;48.682;9.016;2023-07-20T14:54:15;27.50;54.70
3406;DHT22;10008;48.682;9.016;2023-07-20T14:56:49;27.40;58.10
3406;DHT22;10008;48.682;9.016;2023-07-20T14:59:16;27.20;57.60
3406;DHT22;10008;48.682;9.016;2023-07-20T15:01:43;27.10;54.70
3406;DHT22;10008;48.682;9.016;2023-07-20T15:04:11;27.00;59.00
3406;DHT22;10008;48.682;9.016;2023-07-20T15:06:37;26.90;57.50
3406;DHT22;10008;48.682;9.016;2023-07-20T15:09:03;26.70;55.90
3406;DHT22;10008;48.682;9.016;2023-07-20T15:11:29;26.70;55.70
3406;DHT22;10008;48.682;9.016;2023-07-20T15:13:55;26.60;57.10
3406;DHT22;10008;48.682;9.016;2023-07-20T15:16:23;26.60;55.00
3406;DHT22;10008;48.682;9.016;2023-07-20T15:18:49;26.60;56.70
3406;DHT22;10008;48.682;9.016;2023-07-20T15:21:15;26.40;54.50
3406;DHT22;10008;48.682;9.016;2023-07-20T15:23:42;26.30;58.80
3406;DHT22;10008;48.682;9.016;2023-07-20T15:26:08;26.50;56.30
3406;DHT22;10008;48.682;9.016;2023-07-20T15:28:34;26.70;57.50
3406;DHT22;10008;48.682;9.016;2023-07-20T15:31:00;26.80;57.80
3406;DHT22;10008;48.682;9.016;2023-07-20T15:33:26;27.00;54.60
3406;DHT22;10008;48.682;9.016;2023-07-20T15:35:52;27.20;54.80
3406;DHT22;10008;48.682;9.016;2023-07-20T15:38:18;27.10;55.60
3406;DHT22;10008;48.682;9.016;2023-07-20T15:40:45;27.20;60.50
3406;DHT22;10008;48.682;9.016;2023-07-20T15:43:12;27.20;59.40
3406;DHT22;10008;48.682;9.016;2023-07-20T15:45:38;27.00;56.40
3406;DHT22;10008;48.682;9.016;2023-07-20T15:48:04;26.80;59.00
3406;DHT22;10008;48.682;9.016;2023-07-20T15:50:29;26.70;57.40
3406;DHT22;10008;48.682;9.016;2023-07-20T15:52:55;26.70;57.90
3406;DHT22;10008;48.682;9.016;2023-07-20T15:55:21;26.70;57.70
3406;DHT22;10008;48.682;9.016;2023-07-20T15:57:46;26.50;54.60
3406;DHT22;10008;48.682;9.016;2023-07-20T16:00:12;26.40;55.70